Time;durP1;ratioP1;P1;durP2;ratioP2;P2;SDS_P1;SDS_P2;PMS_P1;PMS_P2;Temp;Humidity;BMP_temperature;BMP_pressure;BME280_temperature;BME280_humidity;BME280_pressure;Samples;Min_cycle;Max_cycle;Signal;HPM_P1;HPM_P2
2023/08/13 13:14:06;;;;;;;3.37;1.90;;;;;;;34.47;22.47;100115.37;9235246;26;4208093;-84
2023/08/13 13:18:25;;;;;;;2.85;1.70;;;;;;;34.94;22.60;100098.44;9474810;26;38760;-85
2023/08/13 13:22:42;;;;;;;3.92;1.83;;;;;;;34.75;22.47;100100.78;9474842;26;36127;-84
2023/08/13 13:26:58;;;;;;;3.05;1.80;;;;;;;35.28;22.29;100095.41;9475520;26;39146;-88
2023/08/13 13:31:14;;;;;;;2.85;1.83;;;;;;;35.20;21.87;100093.09;9475210;26;40687;-86
2023/08/13 13:35:31;;;;;;;9.45;1.98;;;;;;;34.91;22.66;100094.44;9472583;26;38063;-87
2023/08/13 13:39:47;;;;;;;5.05;1.67;;;;;;;35.91;21.96;100082.38;9473949;26;37538;-84
2023/08/13 13:44:04;;;;;;;5.90;1.70;;;;;;;35.89;22.27;100085.69;9473855;26;39172;-85
2023/08/13 13:48:21;;;;;;;6.80;2.00;;;;;;;35.83;21.16;100081.75;9474295;26;39906;-88
2023/08/13 13:52:37;;;;;;;3.05;1.80;;;;;;;35.76;20.76;100081.91;9454147;26;38013;-86
2023/08/13 13:56:53;;;;;;;2.50;1.73;;;;;;;35.85;20.36;100069.97;9474638;26;36891;-87
2023/08/13 14:01:09;;;;;;;3.35;1.90;;;;;;;35.58;21.25;100075.78;9474469;26;39232;-86
2023/08/13 14:05:26;;;;;;;2.92;1.95;;;;;;;35.77;21.15;100063.63;9474514;26;39982;-88
2023/08/13 14:09:42;;;;;;;3.70;1.80;;;;;;;35.83;21.99;100069.62;9474650;26;38007;-90
2023/08/13 14:13:58;;;;;;;4.00;1.90;;;;;;;35.00;21.41;100068.41;9473892;26;37674;-85
2023/08/13 14:18:15;;;;;;;2.45;1.73;;;;;;;35.40;20.43;100062.00;9472869;26;39424;-86
2023/08/13 14:22:31;;;;;;;3.87;1.98;;;;;;;35.53;22.31;100066.56;9472740;26;39132;-85
2023/08/13 14:26:49;;;;;;;3.58;1.80;;;;;;;35.45;21.09;100070.00;9473697;26;38016;-85
2023/08/13 14:31:06;;;;;;;2.42;1.70;;;;;;;35.34;21.12;100058.84;9453740;26;37685;-87
2023/08/13 14:35:22;;;;;;;2.83;1.80;;;;;;;35.37;21.17;100060.81;9474556;26;39915;-85
2023/08/13 14:39:38;;;;;;;3.78;2.00;;;;;;;35.63;22.43;100061.88;9474795;26;40011;-86
2023/08/13 14:43:55;;;;;;;6.93;1.75;;;;;;;35.92;21.41;100059.25;9473759;26;37840;-87
2023/08/13 14:48:11;;;;;;;5.05;1.75;;;;;;;36.07;22.31;100058.94;9454238;26;37691;-88
2023/08/13 14:52:28;;;;;;;3.72;1.70;;;;;;;34.79;21.16;100059.06;9474634;26;39373;-86
2023/08/13 14:56:46;;;;;;;2.05;1.55;;;;;;;33.85;22.03;100058.88;9473344;26;40150;-89
2023/08/13 15:01:02;;;;;;;2.37;1.70;;;;;;;34.50;22.76;100057.94;9474436;26;38090;-87
2023/08/13 15:05:18;;;;;;;2.58;1.80;;;;;;;34.99;22.56;100049.78;9474524;26;36941;-87
2023/08/13 15:09:34;;;;;;;1.98;1.45;;;;;;;34.31;22.31;100045.31;9474749;26;40176;-88
2023/08/13 15:13:51;;;;;;;2.17;1.52;;;;;;;35.06;21.55;100040.34;9473407;26;40123;-87
2023/08/13 15:18:07;;;;;;;3.85;1.83;;;;;;;35.69;22.90;100040.31;9473949;26;38470;-86
2023/08/13 15:22:24;;;;;;;1.83;1.58;;;;;;;36.05;22.98;100045.19;9474542;26;36960;-87
2023/08/13 15:26:40;;;;;;;2.05;1.60;;;;;;;36.01;22.27;100038.00;9474672;26;39283;-87
2023/08/13 15:30:57;;;;;;;3.05;1.65;;;;;;;35.46;21.11;100035.53;9474259;26;39983;-87
2023/08/13 15:35:13;;;;;;;1.85;1.67;;;;;;;35.35;22.34;100037.78;9474393;26;37752;-86
2023/08/13 15:39:30;;;;;;;6.68;1.90;;;;;;;35.62;20.40;100045.34;9474466;26;36727;-87
2023/08/13 15:43:46;;;;;;;1.98;1.70;;;;;;;35.73;21.77;100041.03;9474415;26;39994;-86
2023/08/13 15:48:02;;;;;;;7.00;2.08;;;;;;;36.03;24.59;100035.50;9474382;26;39915;-86
2023/08/13 15:52:19;;;;;;;4.90;1.87;;;;;;;35.73;25.24;100037.41;9474284;26;38267;-86
2023/08/13 15:56:35;;;;;;;3.05;1.83;;;;;;;35.39;22.18;100035.66;9474246;26;37630;-86
2023/08/13 16:00:54;;;;;;;4.90;2.17;;;;;;;35.20;21.52;100036.44;9474101;26;38932;-82
2023/08/13 16:05:11;;;;;;;6.18;1.95;;;;;;;35.48;22.13;100035.06;9474116;26;40912;-82
2023/08/13 16:09:27;;;;;;;3.85;1.73;;;;;;;35.33;22.24;100031.75;9473722;26;37954;-82
2023/08/13 16:13:44;;;;;;;5.10;1.83;;;;;;;35.22;22.44;100028.34;9468289;26;37255;-81
2023/08/13 16:18:00;;;;;;;2.08;1.70;;;;;;;35.16;23.16;100036.53;9471422;26;39830;-79
2023/08/13 16:22:17;;;;;;;4.37;1.80;;;;;;;34.90;23.18;100039.03;9472730;26;40013;-82
2023/08/13 16:26:34;;;;;;;3.55;1.98;;;;;;;34.72;23.40;100035.72;9473537;26;38851;-80
2023/08/13 16:30:50;;;;;;;2.78;1.95;;;;;;;34.64;23.18;100037.06;9474557;26;36948;-80
2023/08/13 16:35:07;;;;;;;4.07;2.10;;;;;;;34.77;23.43;100033.22;9474286;26;40027;-80
2023/08/13 16:39:23;;;;;;;3.35;2.00;;;;;;;34.11;24.36;100031.03;9474351;26;40645;-82
2023/08/13 16:43:40;;;;;;;3.08;2.00;;;;;;;33.98;25.26;100042.94;9474484;26;37963;-82
2023/08/13 16:47:56;;;;;;;3.62;2.28;;;;;;;33.93;26.70;100037.75;9474188;26;36944;-81
2023/08/13 16:52:12;;;;;;;4.53;2.10;;;;;;;34.13;26.02;100039.88;9474540;26;40048;-83
2023/08/13 16:56:29;;;;;;;12.98;2.70;;;;;;;34.25;24.83;100044.97;9473699;26;39919;-82
2023/08/13 17:00:46;;;;;;;4.62;1.90;;;;;;;34.10;24.62;100041.53;9474570;26;37995;-80
2023/08/13 17:05:05;;;;;;;3.50;1.60;;;;;;;34.36;24.48;100034.28;9474506;26;36498;-81
2023/08/13 17:09:21;;;;;;;3.22;2.00;;;;;;;35.05;23.48;100031.06;9474181;26;40018;-81
2023/08/13 17:13:39;;;;;;;7.55;2.10;;;;;;;37.12;21.29;100017.34;9474341;26;40720;-77
2023/08/13 17:17:56;;;;;;;11.18;2.10;;;;;;;37.95;21.62;100018.59;9473941;26;38883;-75
2023/08/13 17:22:13;;;;;;;3.35;1.85;;;;;;;37.14;23.10;100021.34;9474520;26;37108;-75
2023/08/13 17:26:29;;;;;;;6.20;2.10;;;;;;;35.80;25.43;100030.78;9474132;26;40216;-85
2023/08/13 17:30:45;;;;;;;4.95;2.05;;;;;;;35.25;26.22;100035.97;9474069;26;39885;-84
2023/08/13 17:35:03;;;;;;;5.12;2.15;;;;;;;34.31;28.19;100039.66;9473538;26;38667;-84
2023/08/13 17:39:20;;;;;;;6.90;2.20;;;;;;;33.80;29.17;100046.00;9474259;26;36437;-84
2023/08/13 17:43:37;;;;;;;5.85;2.28;;;;;;;33.06;30.92;100051.28;9474629;26;39153;-85
2023/08/13 17:47:54;;;;;;;42.38;4.87;;;;;;;32.19;33.56;100049.19;9473964;26;39942;-84
2023/08/13 17:52:12;;;;;;;8.40;2.72;;;;;;;31.61;34.73;100051.50;9473936;26;38095;-83
2023/08/13 17:56:28;;;;;;;6.87;2.50;;;;;;;31.26;35.46;100058.88;9474228;26;36967;-83
2023/08/13 18:00:45;;;;;;;12.52;2.70;;;;;;;30.94;36.20;100072.22;9474152;26;39442;-79
2023/08/13 18:05:03;;;;;;;4.43;2.37;;;;;;;30.48;38.10;100082.25;9473753;26;39895;-79
2023/08/13 18:09:20;;;;;;;13.70;2.80;;;;;;;30.02;39.15;100077.31;9474460;26;37881;-79
2023/08/13 18:13:37;;;;;;;8.40;3.00;;;;;;;29.49;40.35;100087.13;9473699;26;37107;-79
2023/08/13 18:17:55;;;;;;;9.88;2.50;;;;;;;29.31;40.48;100092.66;9473841;26;40037;-80
2023/08/13 18:22:16;;;;;;;5.82;2.40;;;;;;;28.96;40.77;100099.59;9473581;26;39930;-80
2023/08/13 18:26:34;;;;;;;5.68;2.37;;;;;;;28.63;41.29;100096.56;9453273;26;37158;-80
2023/08/13 18:30:50;;;;;;;6.47;3.05;;;;;;;28.23;42.01;100100.12;9473936;26;37321;-79
2023/08/13 18:35:07;;;;;;;5.75;2.08;;;;;;;28.21;41.91;100100.53;9473658;26;39446;-79
2023/08/13 18:39:24;;;;;;;4.78;2.50;;;;;;;27.91;42.82;100108.97;9473626;26;40632;-78
2023/08/13 18:43:40;;;;;;;5.57;2.50;;;;;;;27.60;43.72;100118.59;9474033;26;38774;-78
2023/08/13 18:47:57;;;;;;;4.57;2.50;;;;;;;27.16;44.54;100125.53;9473787;26;36950;-79
2023/08/13 18:52:13;;;;;;;4.62;2.92;;;;;;;27.14;44.45;100122.31;9473490;26;40374;-79
2023/08/13 18:56:31;;;;;;;10.50;2.62;;;;;;;26.86;45.17;100129.06;9473243;26;40228;-78
2023/08/13 19:00:49;;;;;;;5.82;2.78;;;;;;;26.78;44.85;100133.72;9473928;26;36474;-79
2023/08/13 19:05:06;;;;;;;8.43;2.83;;;;;;;26.82;45.09;100139.41;9473410;26;36909;-78
2023/08/13 19:09:23;;;;;;;4.28;2.95;;;;;;;26.57;45.72;100145.31;9474142;26;39312;-80
2023/08/13 19:13:42;;;;;;;13.93;2.78;;;;;;;26.43;45.93;100142.25;9473260;26;39998;-86
2023/08/13 19:18:07;;;;;;;7.12;3.08;;;;;;;26.37;46.27;100149.31;9473689;26;38794;-85
2023/08/13 19:22:24;;;;;;;7.30;2.90;;;;;;;26.00;47.17;100156.19;9474151;26;36438;-86
2023/08/13 19:26:41;;;;;;;3.05;2.60;;;;;;;25.83;47.80;100157.41;9473388;26;39817;-86
2023/08/13 19:30:57;;;;;;;7.47;2.80;;;;;;;25.83;47.73;100165.78;9452442;26;40081;-86
2023/08/13 19:35:14;;;;;;;8.00;2.75;;;;;;;25.63;48.09;100170.56;9473657;26;37647;-91
2023/08/13 19:39:30;;;;;;;5.60;2.58;;;;;;;25.42;48.70;100164.47;9435785;26;36829;-89
2023/08/13 19:43:46;;;;;;;3.85;2.55;;;;;;;25.26;48.52;100167.31;9471552;26;39219;-88
2023/08/13 19:48:03;;;;;;;4.40;2.42;;;;;;;25.15;48.01;100168.97;9470856;26;40405;-87
2023/08/13 19:52:19;;;;;;;4.35;2.50;;;;;;;24.93;48.36;100174.84;9473385;26;38534;-88
2023/08/13 19:56:36;;;;;;;5.75;2.50;;;;;;;24.79;49.23;100177.28;9453197;26;36677;-86
2023/08/13 20:00:52;;;;;;;4.22;2.47;;;;;;;24.72;49.50;100177.91;9473019;26;39442;-86
2023/08/13 20:05:09;;;;;;;5.20;2.90;;;;;;;24.50;50.21;100175.69;9473697;26;40075;-86
2023/08/13 20:09:25;;;;;;;7.03;2.92;;;;;;;24.50;50.16;100170.09;9472560;26;37594;-84
2023/08/13 20:13:42;;;;;;;6.72;2.47;;;;;;;24.59;49.74;100179.13;9472851;26;36774;-86
2023/08/13 20:17:59;;;;;;;3.50;2.45;;;;;;;24.26;50.52;100177.41;9473031;26;39171;-87
2023/08/13 20:22:22;;;;;;;4.20;2.70;;;;;;;24.27;50.39;100181.03;9472729;26;40640;-86
2023/08/13 20:26:39;;;;;;;4.95;3.03;;;;;;;24.06;50.37;100170.06;9453543;26;38707;-84
2023/08/13 20:30:56;;;;;;;5.10;2.62;;;;;;;24.07;49.96;100171.69;9472731;26;37524;-85
2023/08/13 20:35:14;;;;;;;8.27;2.83;;;;;;;24.00;49.56;100175.87;9472095;26;39254;-85
2023/08/13 20:39:30;;;;;;;7.80;3.05;;;;;;;23.97;49.74;100173.84;9473559;26;38611;-85
2023/08/13 20:43:47;;;;;;;4.07;2.40;;;;;;;23.83;49.87;100170.62;9473357;26;38749;-85
2023/08/13 20:48:04;;;;;;;6.40;2.78;;;;;;;23.79;49.06;100175.25;9473477;26;36870;-86
2023/08/13 20:52:20;;;;;;;5.43;2.50;;;;;;;23.71;49.66;100174.19;9473732;26;39283;-84
2023/08/13 20:56:37;;;;;;;5.18;2.47;;;;;;;23.56;50.36;100167.41;9473649;26;40012;-85
2023/08/13 21:00:53;;;;;;;5.87;2.80;;;;;;;23.56;50.06;100169.34;9473367;26;37946;-85
2023/08/13 21:05:11;;;;;;;5.15;2.97;;;;;;;23.44;49.73;100165.44;9473653;26;34980;-84
2023/08/13 21:09:28;;;;;;;4.25;2.83;;;;;;;23.40;49.66;100170.09;9473406;26;39956;-85
2023/08/13 21:13:45;;;;;;;3.97;2.30;;;;;;;23.31;50.35;100174.16;9475137;26;39875;-85
2023/08/13 21:18:01;;;;;;;5.87;2.60;;;;;;;23.29;50.56;100168.94;9475461;26;38007;-85
2023/08/13 21:22:18;;;;;;;3.55;2.75;;;;;;;23.15;50.92;100174.06;9475434;26;37610;-84
2023/08/13 21:26:34;;;;;;;6.65;2.50;;;;;;;23.05;50.91;100172.50;9454735;26;39205;-82
2023/08/13 21:30:50;;;;;;;4.18;2.47;;;;;;;23.10;50.17;100172.31;9454929;26;40680;-83
2023/08/13 21:35:07;;;;;;;6.93;2.50;;;;;;;23.25;49.30;100168.84;9475040;26;38833;-82
2023/08/13 21:39:27;;;;;;;4.90;2.58;;;;;;;23.12;50.03;100178.31;9475351;26;37736;-82
2023/08/13 21:43:43;;;;;;;4.43;2.90;;;;;;;23.16;50.24;100165.38;9475284;26;40006;-83
2023/08/13 21:47:59;;;;;;;6.55;2.60;;;;;;;23.07;50.36;100173.00;9475369;26;39977;-82
2023/08/13 21:52:16;;;;;;;4.87;2.92;;;;;;;22.96;50.37;100177.38;9475099;26;38622;-81
2023/08/13 21:56:33;;;;;;;4.90;2.60;;;;;;;22.92;50.88;100176.44;9475133;26;37760;-82
2023/08/13 22:00:49;;;;;;;4.30;2.67;;;;;;;22.80;51.13;100180.81;9475183;26;39984;-83
2023/08/13 22:05:05;;;;;;;3.90;2.58;;;;;;;22.44;52.39;100178.78;9475074;26;40578;-82
2023/08/13 22:09:22;;;;;;;4.50;2.87;;;;;;;22.41;52.37;100174.69;9474905;26;37856;-84
2023/08/13 22:13:38;;;;;;;2.90;2.22;;;;;;;22.40;52.23;100180.59;9454193;26;37860;-85
2023/08/13 22:17:54;;;;;;;7.43;3.10;;;;;;;22.34;52.28;100176.44;9475108;26;39566;-83
2023/08/13 22:22:10;;;;;;;4.07;2.87;;;;;;;22.27;52.30;100179.72;9474632;26;40849;-82
2023/08/13 22:26:27;;;;;;;4.03;2.80;;;;;;;22.19;52.54;100184.19;9474827;26;38067;-83
2023/08/13 22:30:43;;;;;;;3.72;2.62;;;;;;;22.33;52.05;100181.16;9475180;26;37778;-82
2023/08/13 22:35:00;;;;;;;3.85;2.60;;;;;;;22.13;52.75;100180.00;9475609;26;38770;-82
2023/08/13 22:39:16;;;;;;;4.62;2.87;;;;;;;22.18;52.51;100188.12;9474948;26;39898;-83
2023/08/13 22:43:32;;;;;;;6.28;3.05;;;;;;;22.12;52.78;100187.50;9474952;26;37979;-83
2023/08/13 22:47:49;;;;;;;6.70;2.78;;;;;;;21.99;53.19;100188.63;9474799;26;36913;-83
2023/08/13 22:52:08;;;;;;;5.55;3.17;;;;;;;22.10;52.66;100175.94;9474745;26;39324;-83
2023/08/13 22:56:27;;;;;;;9.32;2.70;;;;;;;22.00;52.96;100186.66;9474849;26;39904;-83
2023/08/13 23:00:44;;;;;;;4.75;2.60;;;;;;;21.94;52.96;100183.28;9474786;26;38647;-82
2023/08/13 23:05:00;;;;;;;4.25;2.83;;;;;;;21.73;53.33;100180.47;9474574;26;36978;-82
2023/08/13 23:09:17;;;;;;;4.32;2.60;;;;;;;21.86;53.11;100181.38;9474635;26;39231;-82
2023/08/13 23:13:33;;;;;;;4.85;2.87;;;;;;;21.74;53.64;100185.69;9474282;26;39984;-82
2023/08/13 23:17:50;;;;;;;5.62;2.83;;;;;;;21.72;53.35;100187.19;9474673;26;38696;-82
2023/08/13 23:22:07;;;;;;;6.85;3.30;;;;;;;21.67;53.67;100190.16;9474629;26;36957;-82
2023/08/13 23:26:23;;;;;;;3.65;2.70;;;;;;;21.33;54.83;100191.97;9474600;26;39087;-82
2023/08/13 23:30:40;;;;;;;5.20;2.90;;;;;;;21.35;54.72;100184.94;9474609;26;39858;-82
2023/08/13 23:34:56;;;;;;;4.47;2.70;;;;;;;21.29;54.87;100182.72;9473840;26;38745;-81
2023/08/13 23:39:12;;;;;;;6.78;2.85;;;;;;;21.48;53.98;100172.00;9474289;26;37118;-81
2023/08/13 23:43:29;;;;;;;5.22;2.62;;;;;;;21.31;54.40;100166.53;9474498;26;39517;-82
2023/08/13 23:47:45;;;;;;;6.53;3.20;;;;;;;21.29;54.21;100166.88;9474366;26;40821;-82
2023/08/13 23:52:02;;;;;;;5.55;2.80;;;;;;;21.39;54.03;100166.50;9474265;26;39236;-82
2023/08/13 23:56:18;;;;;;;5.62;3.08;;;;;;;21.28;54.33;100172.75;9474306;26;37044;-82
